sensor_id;sensor_type;location;lat;lon;timestamp;P1;durP1;ratioP1;P2;durP2;ratioP2
29344;SDS011;16339;48.748;2.222;2023-06-26T00:00:32;6.95;;;3.65;;
29344;SDS011;16339;48.748;2.222;2023-06-26T00:03:07;14.13;;;4.40;;
29344;SDS011;16339;48.748;2.222;2023-06-26T00:05:40;9.63;;;4.10;;
29344;SDS011;16339;48.748;2.222;2023-06-26T00:08:18;7.18;;;3.70;;
29344;SDS011;16339;48.748;2.222;2023-06-26T00:10:49;11.20;;;4.70;;
29344;SDS011;16339;48.748;2.222;2023-06-26T00:13:19;12.48;;;4.63;;
29344;SDS011;16339;48.748;2.222;2023-06-26T00:15:54;8.45;;;4.80;;
29344;SDS011;16339;48.748;2.222;2023-06-26T00:21:51;7.13;;;3.95;;
29344;SDS011;16339;48.748;2.222;2023-06-26T00:24:20;15.02;;;5.43;;
29344;SDS011;16339;48.748;2.222;2023-06-26T00:26:51;16.20;;;5.82;;
29344;SDS011;16339;48.748;2.222;2023-06-26T00:29:24;7.30;;;4.70;;
29344;SDS011;16339;48.748;2.222;2023-06-26T00:31:55;11.63;;;4.10;;
29344;SDS011;16339;48.748;2.222;2023-06-26T00:34:27;9.82;;;4.40;;
29344;SDS011;16339;48.748;2.222;2023-06-26T00:36:58;10.63;;;3.90;;
29344;SDS011;16339;48.748;2.222;2023-06-26T00:39:29;8.68;;;3.97;;
29344;SDS011;16339;48.748;2.222;2023-06-26T00:42:00;10.30;;;3.92;;
29344;SDS011;16339;48.748;2.222;2023-06-26T00:44:28;7.43;;;3.15;;
29344;SDS011;16339;48.748;2.222;2023-06-26T00:47:00;9.45;;;3.38;;
29344;SDS011;16339;48.748;2.222;2023-06-26T00:49:33;9.30;;;3.10;;
29344;SDS011;16339;48.748;2.222;2023-06-26T00:52:06;7.60;;;2.85;;
29344;SDS011;16339;48.748;2.222;2023-06-26T00:54:38;12.13;;;3.22;;
29344;SDS011;16339;48.748;2.222;2023-06-26T00:57:09;7.43;;;2.80;;
29344;SDS011;16339;48.748;2.222;2023-06-26T00:59:41;8.55;;;2.83;;
29344;SDS011;16339;48.748;2.222;2023-06-26T01:02:25;7.97;;;3.10;;
29344;SDS011;16339;48.748;2.222;2023-06-26T01:04:58;9.48;;;2.50;;
29344;SDS011;16339;48.748;2.222;2023-06-26T01:07:34;7.07;;;2.70;;
29344;SDS011;16339;48.748;2.222;2023-06-26T01:10:04;9.43;;;3.38;;
29344;SDS011;16339;48.748;2.222;2023-06-26T01:12:34;10.63;;;2.70;;
29344;SDS011;16339;48.748;2.222;2023-06-26T01:15:06;6.38;;;2.67;;
29344;SDS011;16339;48.748;2.222;2023-06-26T01:17:36;7.90;;;2.60;;
29344;SDS011;16339;48.748;2.222;2023-06-26T01:20:16;10.90;;;3.10;;
29344;SDS011;16339;48.748;2.222;2023-06-26T01:22:56;13.23;;;3.20;;
29344;SDS011;16339;48.748;2.222;2023-06-26T01:25:41;14.00;;;2.88;;
29344;SDS011;16339;48.748;2.222;2023-06-26T01:29:02;11.32;;;2.75;;
29344;SDS011;16339;48.748;2.222;2023-06-26T01:32:01;14.13;;;3.00;;
29344;SDS011;16339;48.748;2.222;2023-06-26T01:34:30;6.20;;;2.70;;
29344;SDS011;16339;48.748;2.222;2023-06-26T01:37:09;8.52;;;2.67;;
29344;SDS011;16339;48.748;2.222;2023-06-26T01:39:42;13.25;;;2.85;;
29344;SDS011;16339;48.748;2.222;2023-06-26T01:42:15;9.17;;;3.10;;
29344;SDS011;16339;48.748;2.222;2023-06-26T01:44:50;9.50;;;3.30;;
29344;SDS011;16339;48.748;2.222;2023-06-26T01:47:23;11.75;;;2.80;;
29344;SDS011;16339;48.748;2.222;2023-06-26T01:50:01;6.88;;;2.38;;
29344;SDS011;16339;48.748;2.222;2023-06-26T01:52:53;11.77;;;2.38;;
29344;SDS011;16339;48.748;2.222;2023-06-26T01:55:50;12.25;;;2.80;;
29344;SDS011;16339;48.748;2.222;2023-06-26T01:58:53;8.30;;;2.55;;
29344;SDS011;16339;48.748;2.222;2023-06-26T02:01:54;12.30;;;3.15;;
29344;SDS011;16339;48.748;2.222;2023-06-26T02:04:26;10.50;;;3.40;;
29344;SDS011;16339;48.748;2.222;2023-06-26T02:10:00;10.38;;;3.20;;
29344;SDS011;16339;48.748;2.222;2023-06-26T02:12:50;13.70;;;2.85;;
29344;SDS011;16339;48.748;2.222;2023-06-26T02:15:21;10.88;;;2.38;;
29344;SDS011;16339;48.748;2.222;2023-06-26T02:17:52;9.57;;;2.80;;
29344;SDS011;16339;48.748;2.222;2023-06-26T02:20:21;10.93;;;2.70;;
29344;SDS011;16339;48.748;2.222;2023-06-26T02:22:50;15.93;;;3.00;;
29344;SDS011;16339;48.748;2.222;2023-06-26T02:25:19;13.30;;;3.00;;
29344;SDS011;16339;48.748;2.222;2023-06-26T02:27:48;14.48;;;2.80;;
29344;SDS011;16339;48.748;2.222;2023-06-26T02:30:36;7.60;;;2.38;;
29344;SDS011;16339;48.748;2.222;2023-06-26T02:33:11;13.13;;;2.55;;
29344;SDS011;16339;48.748;2.222;2023-06-26T02:35:43;10.30;;;2.30;;
29344;SDS011;16339;48.748;2.222;2023-06-26T02:48:33;15.20;;;3.10;;
29344;SDS011;16339;48.748;2.222;2023-06-26T02:53:59;8.60;;;2.50;;
29344;SDS011;16339;48.748;2.222;2023-06-26T03:02:15;12.60;;;2.70;;
29344;SDS011;16339;48.748;2.222;2023-06-26T03:04:58;12.60;;;2.35;;
29344;SDS011;16339;48.748;2.222;2023-06-26T03:07:59;11.00;;;2.58;;
29344;SDS011;16339;48.748;2.222;2023-06-26T03:10:37;9.60;;;2.45;;
29344;SDS011;16339;48.748;2.222;2023-06-26T03:13:45;11.10;;;2.60;;
29344;SDS011;16339;48.748;2.222;2023-06-26T03:16:45;14.00;;;2.50;;
29344;SDS011;16339;48.748;2.222;2023-06-26T03:19:39;15.40;;;3.10;;
29344;SDS011;16339;48.748;2.222;2023-06-26T03:22:10;9.18;;;2.33;;
29344;SDS011;16339;48.748;2.222;2023-06-26T03:24:45;13.75;;;2.97;;
29344;SDS011;16339;48.748;2.222;2023-06-26T03:30:53;7.55;;;2.60;;
29344;SDS011;16339;48.748;2.222;2023-06-26T03:33:22;15.30;;;3.10;;
29344;SDS011;16339;48.748;2.222;2023-06-26T03:38:24;11.15;;;2.85;;
29344;SDS011;16339;48.748;2.222;2023-06-26T03:40:53;12.50;;;3.07;;
29344;SDS011;16339;48.748;2.222;2023-06-26T04:17:59;12.50;;;3.10;;
29344;SDS011;16339;48.748;2.222;2023-06-26T04:33:39;13.05;;;2.50;;
29344;SDS011;16339;48.748;2.222;2023-06-26T04:36:24;14.10;;;2.90;;
29344;SDS011;16339;48.748;2.222;2023-06-26T05:23:09;10.65;;;3.30;;
29344;SDS011;16339;48.748;2.222;2023-06-26T05:26:09;17.50;;;4.80;;
29344;SDS011;16339;48.748;2.222;2023-06-26T09:56:17;13.55;;;2.75;;
29344;SDS011;16339;48.748;2.222;2023-06-26T10:06:13;9.20;;;2.80;;
29344;SDS011;16339;48.748;2.222;2023-06-26T10:08:47;9.20;;;2.20;;
29344;SDS011;16339;48.748;2.222;2023-06-26T10:11:21;8.20;;;2.20;;
29344;SDS011;16339;48.748;2.222;2023-06-26T13:41:37;6.20;;;1.80;;
29344;SDS011;16339;48.748;2.222;2023-06-26T14:04:20;6.75;;;1.75;;
29344;SDS011;16339;48.748;2.222;2023-06-26T14:06:49;7.30;;;1.85;;
29344;SDS011;16339;48.748;2.222;2023-06-26T14:09:27;8.10;;;1.70;;
29344;SDS011;16339;48.748;2.222;2023-06-26T14:21:04;5.50;;;1.70;;
29344;SDS011;16339;48.748;2.222;2023-06-26T14:26:03;5.00;;;1.80;;
29344;SDS011;16339;48.748;2.222;2023-06-26T14:28:31;6.50;;;1.70;;
29344;SDS011;16339;48.748;2.222;2023-06-26T14:31:16;5.47;;;1.40;;
29344;SDS011;16339;48.748;2.222;2023-06-26T14:37:19;5.30;;;1.60;;
29344;SDS011;16339;48.748;2.222;2023-06-26T14:43:07;8.10;;;1.70;;
29344;SDS011;16339;48.748;2.222;2023-06-26T14:46:12;4.10;;;1.60;;
29344;SDS011;16339;48.748;2.222;2023-06-26T14:48:44;6.23;;;1.87;;
29344;SDS011;16339;48.748;2.222;2023-06-26T14:51:16;7.30;;;2.00;;
29344;SDS011;16339;48.748;2.222;2023-06-26T14:56:41;6.55;;;2.00;;
29344;SDS011;16339;48.748;2.222;2023-06-26T14:59:13;8.10;;;1.30;;
29344;SDS011;16339;48.748;2.222;2023-06-26T15:09:40;3.70;;;1.60;;
29344;SDS011;16339;48.748;2.222;2023-06-26T15:20:12;5.67;;;1.80;;
29344;SDS011;16339;48.748;2.222;2023-06-26T15:33:12;6.20;;;1.93;;
29344;SDS011;16339;48.748;2.222;2023-06-26T15:35:41;6.43;;;1.70;;
29344;SDS011;16339;48.748;2.222;2023-06-26T15:38:21;10.87;;;2.30;;
29344;SDS011;16339;48.748;2.222;2023-06-26T15:40:52;6.80;;;2.10;;
29344;SDS011;16339;48.748;2.222;2023-06-26T15:46:40;7.47;;;1.70;;
29344;SDS011;16339;48.748;2.222;2023-06-26T16:01:34;13.10;;;2.10;;
29344;SDS011;16339;48.748;2.222;2023-06-26T16:04:15;5.55;;;1.80;;
29344;SDS011;16339;48.748;2.222;2023-06-26T16:06:59;5.07;;;1.80;;
29344;SDS011;16339;48.748;2.222;2023-06-26T16:09:28;17.63;;;2.70;;
29344;SDS011;16339;48.748;2.222;2023-06-26T16:11:58;6.22;;;1.80;;
29344;SDS011;16339;48.748;2.222;2023-06-26T16:14:43;12.55;;;2.15;;
29344;SDS011;16339;48.748;2.222;2023-06-26T16:17:36;7.75;;;2.25;;
29344;SDS011;16339;48.748;2.222;2023-06-26T16:20:08;8.10;;;2.00;;
29344;SDS011;16339;48.748;2.222;2023-06-26T16:22:38;7.80;;;2.60;;
29344;SDS011;16339;48.748;2.222;2023-06-26T16:25:07;8.00;;;2.10;;
29344;SDS011;16339;48.748;2.222;2023-06-26T16:27:38;4.70;;;1.90;;
29344;SDS011;16339;48.748;2.222;2023-06-26T16:30:15;6.95;;;2.30;;
29344;SDS011;16339;48.748;2.222;2023-06-26T16:33:00;6.40;;;2.30;;
29344;SDS011;16339;48.748;2.222;2023-06-26T16:35:30;6.10;;;2.00;;
29344;SDS011;16339;48.748;2.222;2023-06-26T16:37:59;4.25;;;2.00;;
29344;SDS011;16339;48.748;2.222;2023-06-26T16:40:31;7.50;;;2.90;;
29344;SDS011;16339;48.748;2.222;2023-06-26T16:43:06;5.32;;;2.03;;
29344;SDS011;16339;48.748;2.222;2023-06-26T16:48:50;7.05;;;1.85;;
29344;SDS011;16339;48.748;2.222;2023-06-26T16:51:36;7.30;;;2.30;;
29344;SDS011;16339;48.748;2.222;2023-06-26T16:54:10;4.05;;;1.65;;
29344;SDS011;16339;48.748;2.222;2023-06-26T16:59:37;8.60;;;2.00;;
29344;SDS011;16339;48.748;2.222;2023-06-26T17:02:08;5.45;;;1.70;;
29344;SDS011;16339;48.748;2.222;2023-06-26T17:07:36;9.85;;;2.15;;
29344;SDS011;16339;48.748;2.222;2023-06-26T17:10:06;5.40;;;1.90;;
29344;SDS011;16339;48.748;2.222;2023-06-26T17:15:11;6.40;;;1.95;;
29344;SDS011;16339;48.748;2.222;2023-06-26T17:17:39;10.15;;;1.75;;
29344;SDS011;16339;48.748;2.222;2023-06-26T17:20:11;6.30;;;1.60;;
29344;SDS011;16339;48.748;2.222;2023-06-26T17:22:40;7.00;;;2.20;;
29344;SDS011;16339;48.748;2.222;2023-06-26T17:25:09;12.90;;;1.90;;
29344;SDS011;16339;48.748;2.222;2023-06-26T17:27:38;4.45;;;1.63;;
29344;SDS011;16339;48.748;2.222;2023-06-26T17:30:07;6.10;;;1.90;;
29344;SDS011;16339;48.748;2.222;2023-06-26T17:32:36;3.90;;;1.80;;
29344;SDS011;16339;48.748;2.222;2023-06-26T17:35:11;8.70;;;2.20;;
29344;SDS011;16339;48.748;2.222;2023-06-26T17:42:41;13.80;;;1.90;;
29344;SDS011;16339;48.748;2.222;2023-06-26T17:47:41;6.70;;;2.10;;
29344;SDS011;16339;48.748;2.222;2023-06-26T17:50:12;9.00;;;2.10;;
29344;SDS011;16339;48.748;2.222;2023-06-26T17:52:41;7.00;;;2.10;;
29344;SDS011;16339;48.748;2.222;2023-06-26T17:57:38;9.70;;;1.80;;
29344;SDS011;16339;48.748;2.222;2023-06-26T18:00:07;7.85;;;2.00;;
29344;SDS011;16339;48.748;2.222;2023-06-26T18:02:37;10.03;;;2.33;;
29344;SDS011;16339;48.748;2.222;2023-06-26T18:05:06;5.20;;;2.00;;
29344;SDS011;16339;48.748;2.222;2023-06-26T18:07:39;5.60;;;2.10;;
29344;SDS011;16339;48.748;2.222;2023-06-26T18:10:08;8.55;;;2.15;;
29344;SDS011;16339;48.748;2.222;2023-06-26T18:12:37;6.93;;;2.08;;
29344;SDS011;16339;48.748;2.222;2023-06-26T18:15:08;5.80;;;2.25;;
29344;SDS011;16339;48.748;2.222;2023-06-26T18:17:37;7.55;;;2.15;;
29344;SDS011;16339;48.748;2.222;2023-06-26T18:20:07;11.40;;;2.20;;
29344;SDS011;16339;48.748;2.222;2023-06-26T18:22:38;10.70;;;2.20;;
29344;SDS011;16339;48.748;2.222;2023-06-26T18:50:15;15.80;;;2.50;;
29344;SDS011;16339;48.748;2.222;2023-06-26T18:53:23;12.30;;;2.40;;
29344;SDS011;16339;48.748;2.222;2023-06-26T18:59:07;6.20;;;2.00;;
29344;SDS011;16339;48.748;2.222;2023-06-26T19:07:45;5.00;;;1.90;;
29344;SDS011;16339;48.748;2.222;2023-06-26T19:13:15;10.00;;;2.15;;
29344;SDS011;16339;48.748;2.222;2023-06-26T19:19:10;7.00;;;1.80;;
29344;SDS011;16339;48.748;2.222;2023-06-26T19:21:39;11.00;;;2.40;;
29344;SDS011;16339;48.748;2.222;2023-06-26T19:41:30;12.70;;;2.40;;
29344;SDS011;16339;48.748;2.222;2023-06-26T20:06:18;9.85;;;2.10;;
29344;SDS011;16339;48.748;2.222;2023-06-26T20:08:47;14.80;;;2.30;;
29344;SDS011;16339;48.748;2.222;2023-06-26T20:18:45;14.30;;;2.60;;
29344;SDS011;16339;48.748;2.222;2023-06-26T20:21:14;8.50;;;2.00;;
29344;SDS011;16339;48.748;2.222;2023-06-26T20:26:12;12.20;;;2.70;;
29344;SDS011;16339;48.748;2.222;2023-06-26T20:41:07;16.70;;;2.30;;
